createdAt,value
2019-03-23T00:02:24.670Z,28.67
2019-03-23T00:07:26.404Z,26.90
2019-03-23T00:12:27.825Z,25.73
2019-03-23T00:17:29.544Z,27.90
2019-03-23T00:22:31.288Z,27.90
2019-03-23T00:27:32.999Z,26.17
2019-03-23T00:32:34.762Z,29.20
2019-03-23T00:37:36.191Z,26.57
2019-03-23T00:42:37.961Z,27.60
2019-03-23T00:47:39.382Z,26.57
2019-03-23T00:52:40.806Z,27.87
2019-03-23T00:57:42.237Z,27.03
2019-03-23T01:02:43.689Z,27.40
2019-03-23T01:07:45.105Z,26.93
2019-03-23T01:12:46.522Z,27.10
2019-03-23T01:17:47.947Z,26.33
2019-03-23T01:22:49.667Z,26.33
2019-03-23T01:27:51.087Z,26.20
2019-03-23T01:32:52.935Z,28.07
2019-03-23T01:37:54.709Z,27.67
2019-03-23T01:42:56.130Z,26.80
2019-03-23T01:47:57.871Z,26.27
2019-03-23T01:52:59.308Z,27.37
2019-03-23T01:58:01.090Z,28.07
2019-03-23T02:03:02.844Z,25.03
2019-03-23T02:08:04.311Z,25.73
2019-03-23T02:13:05.730Z,26.87
2019-03-23T02:18:07.159Z,26.47
2019-03-23T02:23:08.643Z,26.23
2019-03-23T02:28:10.053Z,24.83
2019-03-23T02:33:11.507Z,25.63
2019-03-23T02:38:12.974Z,24.67
2019-03-23T02:43:14.510Z,24.97
2019-03-23T02:48:16.104Z,24.30
2019-03-23T02:53:17.910Z,24.60
2019-03-23T02:58:19.414Z,25.30
2019-03-23T03:03:21.180Z,23.97
2019-03-23T03:08:22.601Z,24.67
2019-03-23T03:13:24.177Z,23.70
2019-03-23T03:18:25.694Z,24.00
2019-03-23T03:23:27.127Z,23.97
2019-03-23T03:28:28.541Z,24.10
2019-03-23T03:33:30.132Z,25.93
2019-03-23T03:38:31.553Z,25.27
2019-03-23T03:43:33.419Z,25.63
2019-03-23T03:48:35.191Z,24.57
2019-03-23T03:53:36.616Z,24.37
2019-03-23T03:58:38.039Z,24.97
2019-03-23T04:03:39.850Z,23.07
2019-03-23T04:08:41.372Z,25.27
2019-03-23T04:13:42.784Z,25.33
2019-03-23T04:18:44.209Z,25.53
2019-03-23T04:23:45.922Z,23.27
2019-03-23T04:28:47.658Z,24.37
2019-03-23T04:33:49.090Z,27.20
2019-03-23T04:38:50.521Z,23.77
2019-03-23T04:43:51.946Z,24.47
2019-03-23T04:48:53.378Z,23.07
2019-03-23T04:53:54.961Z,24.10
2019-03-23T04:58:56.400Z,25.87
2019-03-23T05:03:58.208Z,23.40
2019-03-23T05:08:59.979Z,24.17
2019-03-23T05:14:01.406Z,22.77
2019-03-23T05:19:02.825Z,23.83
2019-03-23T05:24:04.243Z,22.03
2019-03-23T05:29:05.660Z,23.23
2019-03-23T05:34:07.511Z,24.27
2019-03-23T05:39:09.285Z,23.53
2019-03-23T05:44:10.712Z,21.77
2019-03-23T05:49:12.129Z,23.03
2019-03-23T05:54:13.724Z,22.73
2019-03-23T05:59:15.237Z,20.60
2019-03-23T06:04:16.824Z,21.83
2019-03-23T06:09:18.342Z,22.17
2019-03-23T06:14:20.027Z,22.33
2019-03-23T06:19:21.458Z,21.07
2019-03-23T06:24:22.969Z,21.23
2019-03-23T06:29:24.769Z,21.20
2019-03-23T06:34:26.446Z,21.17
2019-03-23T06:39:28.210Z,22.33
2019-03-23T06:44:29.637Z,23.53
2019-03-23T06:49:31.495Z,21.67
2019-03-23T06:54:32.991Z,19.83
2019-03-23T06:59:34.708Z,22.53
2019-03-23T07:04:36.256Z,22.77
2019-03-23T07:09:38.173Z,20.67
2019-03-23T07:14:39.715Z,20.33
2019-03-23T07:19:41.199Z,21.77
2019-03-23T07:24:42.730Z,20.93
2019-03-23T07:29:44.557Z,21.93
2019-03-23T07:34:46.445Z,22.90
2019-03-23T07:39:48.096Z,22.67
2019-03-23T07:44:49.619Z,23.70
2019-03-23T07:49:51.084Z,26.47
2019-03-23T07:54:52.510Z,25.07
2019-03-23T07:59:53.937Z,25.77
2019-03-23T08:04:55.696Z,25.37
2019-03-23T08:09:57.469Z,28.00
2019-03-23T08:14:59.332Z,29.23
2019-03-23T08:20:01.119Z,29.50
2019-03-23T08:25:05.134Z,31.13
2019-03-23T08:30:07.226Z,31.47
2019-03-23T08:35:09.306Z,31.73
2019-03-23T08:40:11.179Z,32.80
2019-03-23T08:45:12.799Z,32.93
2019-03-23T08:50:14.241Z,31.80
2019-03-23T08:55:15.668Z,35.27
2019-03-23T09:00:17.495Z,36.77
2019-03-23T09:05:19.117Z,34.50
2019-03-23T09:10:20.546Z,35.50
2019-03-23T09:15:21.996Z,34.87
2019-03-23T09:20:23.417Z,35.50
2019-03-23T09:25:24.832Z,34.60
2019-03-23T09:30:26.353Z,36.80
2019-03-23T09:35:27.845Z,34.87
2019-03-23T09:40:29.594Z,34.77
2019-03-23T09:45:31.059Z,35.13
2019-03-23T09:50:32.552Z,35.07
2019-03-23T09:55:34.301Z,33.80
2019-03-23T10:00:36.079Z,32.77
2019-03-23T10:06:27.502Z,33.30
2019-03-23T10:11:28.936Z,33.80
2019-03-23T10:16:30.455Z,33.60
2019-03-23T10:21:32.190Z,30.97
2019-03-23T10:26:33.713Z,29.87
2019-03-23T10:31:35.135Z,25.43
2019-03-23T10:36:36.673Z,29.67
2019-03-23T10:41:38.494Z,29.37
2019-03-23T10:46:39.911Z,30.00
2019-03-23T10:51:41.350Z,31.23
2019-03-23T10:56:42.775Z,31.17
2019-03-23T11:01:44.226Z,30.37
2019-03-23T11:06:45.744Z,27.67
2019-03-23T11:11:47.595Z,25.47
2019-03-23T11:16:49.311Z,29.30
2019-03-23T11:21:50.813Z,27.63
2019-03-23T11:26:52.236Z,25.90
2019-03-23T11:31:53.651Z,27.37
2019-03-23T11:36:55.148Z,25.97
2019-03-23T11:41:56.728Z,29.00
2019-03-23T11:46:58.270Z,24.20
2019-03-23T11:52:00.058Z,26.27
2019-03-23T11:57:01.500Z,29.20
2019-03-23T12:02:03.131Z,30.87
2019-03-23T12:07:04.640Z,30.97
2019-03-23T12:12:06.427Z,34.30
2019-03-23T12:17:08.187Z,34.23
2019-03-23T12:22:09.985Z,31.73
2019-03-23T12:27:11.879Z,33.60
2019-03-23T12:32:14.346Z,33.07
2019-03-23T12:37:15.980Z,30.30
2019-03-23T12:42:17.884Z,34.13
2019-03-23T12:47:19.344Z,35.57
2019-03-23T12:52:20.950Z,37.40
2019-03-23T12:57:22.469Z,34.57
2019-03-23T13:02:23.936Z,35.83
2019-03-23T13:07:25.725Z,35.17
2019-03-23T13:12:27.160Z,35.53
2019-03-23T13:17:28.589Z,35.10
2019-03-23T13:22:30.270Z,36.00
2019-03-23T13:27:31.799Z,34.40
2019-03-23T13:32:33.563Z,34.67
2019-03-23T13:37:35.110Z,34.43
2019-03-23T13:42:36.736Z,35.00
2019-03-23T13:47:39.212Z,36.70
2019-03-23T13:52:40.634Z,36.60
2019-03-23T13:57:42.432Z,35.13
2019-03-23T14:02:44.263Z,35.00
2019-03-23T14:07:45.761Z,33.87
2019-03-23T14:12:47.176Z,33.73
2019-03-23T14:17:48.920Z,32.83
2019-03-23T14:22:50.704Z,31.77
2019-03-23T14:27:52.241Z,28.87
2019-03-23T14:32:53.698Z,29.27
2019-03-23T14:37:55.497Z,26.03
2019-03-23T14:42:59.739Z,26.07
2019-03-23T14:48:01.280Z,25.23
2019-03-23T14:53:03.062Z,26.33
2019-03-23T14:58:04.626Z,23.97
2019-03-23T15:03:06.165Z,23.47
2019-03-23T15:08:07.642Z,22.17
2019-03-23T15:13:09.261Z,21.73
2019-03-23T15:18:11.122Z,23.07
2019-03-23T15:23:12.536Z,23.33
2019-03-23T15:28:14.363Z,22.60
2019-03-23T15:33:15.841Z,22.60
2019-03-23T15:38:17.818Z,21.40
2019-03-23T15:43:19.493Z,20.50
2019-03-23T15:48:20.920Z,21.47
2019-03-23T15:53:22.715Z,20.33
2019-03-23T15:58:24.147Z,19.47
2019-03-23T16:03:25.590Z,19.23
2019-03-23T16:08:27.411Z,19.87
2019-03-23T16:13:29.127Z,18.77
2019-03-23T16:18:30.639Z,20.53
2019-03-23T16:23:32.056Z,17.50
2019-03-23T16:28:33.570Z,18.47
2019-03-23T16:33:35.042Z,19.93
2019-03-23T16:38:36.913Z,15.53
2019-03-23T16:43:38.702Z,13.43
2019-03-23T16:48:40.324Z,14.40
2019-03-23T16:53:41.748Z,14.00
2019-03-23T16:58:43.585Z,14.40
2019-03-23T17:03:45.072Z,14.30
2019-03-23T17:08:46.821Z,13.83
2019-03-23T17:13:48.622Z,13.47
2019-03-23T17:18:50.437Z,14.67
2019-03-23T17:23:52.272Z,15.30
2019-03-23T17:28:53.728Z,14.13
2019-03-23T17:33:55.208Z,15.00
2019-03-23T17:38:57.056Z,13.33
2019-03-23T17:43:58.861Z,13.20
2019-03-23T17:49:00.383Z,13.00
2019-03-23T17:54:01.805Z,12.87
2019-03-23T17:59:03.419Z,12.00
2019-03-23T18:04:04.849Z,10.30
2019-03-23T18:09:06.709Z,11.30
2019-03-23T18:14:08.409Z,12.23
2019-03-23T18:19:09.923Z,12.27
2019-03-23T18:24:11.344Z,11.33
2019-03-23T18:29:12.878Z,11.30
2019-03-23T18:34:14.773Z,11.20
2019-03-23T18:39:16.550Z,12.17
2019-03-23T18:44:18.389Z,10.40
2019-03-23T18:49:20.178Z,9.67
2019-03-23T18:54:21.893Z,9.63
2019-03-23T18:59:23.348Z,9.03
2019-03-23T19:04:24.861Z,10.63
2019-03-23T19:09:26.327Z,9.67
2019-03-23T19:14:28.117Z,10.47
2019-03-23T19:19:29.570Z,13.00
2019-03-23T19:24:31.087Z,10.73
2019-03-23T19:29:32.826Z,12.83
2019-03-23T19:34:34.276Z,12.10
2019-03-23T19:39:35.763Z,12.43
2019-03-23T19:44:37.208Z,12.77
2019-03-23T19:49:38.672Z,13.90
2019-03-23T19:54:40.393Z,13.23
2019-03-23T19:59:42.237Z,13.83
2019-03-23T20:04:44.045Z,15.03
2019-03-23T20:09:45.562Z,14.03
2019-03-23T20:14:47.019Z,13.60
2019-03-23T20:19:48.498Z,14.47
2019-03-23T20:24:49.960Z,14.90
2019-03-23T20:29:51.451Z,16.30
2019-03-23T20:34:52.942Z,15.50
2019-03-23T20:39:54.619Z,16.90
2019-03-23T20:44:56.518Z,16.67
2019-03-23T20:49:58.437Z,14.53
2019-03-23T20:55:00.439Z,16.00
2019-03-23T21:00:02.097Z,16.33
2019-03-23T21:05:05.112Z,15.90
2019-03-23T21:10:07.249Z,15.13
2019-03-23T21:15:08.933Z,16.93
2019-03-23T21:20:10.736Z,15.63
2019-03-23T21:25:12.921Z,16.30
2019-03-23T21:30:16.598Z,15.83
2019-03-23T21:35:18.423Z,16.50
2019-03-23T21:40:19.972Z,16.00
2019-03-23T21:45:22.034Z,16.53
2019-03-23T21:50:23.538Z,16.23
2019-03-23T21:55:25.487Z,15.93
2019-03-23T22:00:34.447Z,16.27
2019-03-23T22:05:36.694Z,15.10
2019-03-23T22:10:38.590Z,16.00
2019-03-23T22:15:40.833Z,16.43
2019-03-23T22:20:42.506Z,15.47
2019-03-23T22:25:44.136Z,16.17
2019-03-23T22:30:46.192Z,16.67
2019-03-23T22:35:47.823Z,15.93
2019-03-23T22:40:49.736Z,16.57
2019-03-23T22:45:51.253Z,16.63
2019-03-23T22:50:52.723Z,15.50
2019-03-23T22:55:55.966Z,15.53
2019-03-23T23:00:57.634Z,15.23
2019-03-23T23:05:59.366Z,15.83
2019-03-23T23:11:00.913Z,16.40
2019-03-23T23:16:03.098Z,16.77
2019-03-23T23:21:04.679Z,17.53
2019-03-23T23:26:06.748Z,17.90
2019-03-23T23:31:08.336Z,21.17
2019-03-23T23:36:10.290Z,18.60
2019-03-23T23:41:12.390Z,19.87
2019-03-23T23:46:13.787Z,20.13
2019-03-23T23:51:15.923Z,20.73
2019-03-23T23:56:17.428Z,19.07
